sensor_id;sensor_type;location;lat;lon;timestamp;temperature;humidity
29403;DHT22;16382;59.942;30.472;2023-04-06T00:01:59;4.10;99.90
29403;DHT22;16382;59.942;30.472;2023-04-06T00:04:27;4.10;99.90
29403;DHT22;16382;59.942;30.472;2023-04-06T00:06:54;4.00;99.90
29403;DHT22;16382;59.942;30.472;2023-04-06T00:09:22;4.00;99.90
29403;DHT22;16382;59.942;30.472;2023-04-06T00:11:49;4.00;99.90
29403;DHT22;16382;59.942;30.472;2023-04-06T00:14:17;4.00;99.90
29403;DHT22;16382;59.942;30.472;2023-04-06T00:16:46;4.00;99.90
29403;DHT22;16382;59.942;30.472;2023-04-06T00:19:13;4.00;99.90
29403;DHT22;16382;59.942;30.472;2023-04-06T00:21:41;4.00;99.90
29403;DHT22;16382;59.942;30.472;2023-04-06T00:24:08;4.00;99.90
29403;DHT22;16382;59.942;30.472;2023-04-06T00:26:36;4.00;99.90
29403;DHT22;16382;59.942;30.472;2023-04-06T00:29:04;4.00;99.90
29403;DHT22;16382;59.942;30.472;2023-04-06T00:31:32;4.00;99.90
29403;DHT22;16382;59.942;30.472;2023-04-06T00:34:01;4.00;99.90
29403;DHT22;16382;59.942;30.472;2023-04-06T00:36:28;4.00;99.90
29403;DHT22;16382;59.942;30.472;2023-04-06T00:38:56;4.00;99.90
29403;DHT22;16382;59.942;30.472;2023-04-06T00:41:24;3.90;99.90
29403;DHT22;16382;59.942;30.472;2023-04-06T00:43:53;3.90;99.90
29403;DHT22;16382;59.942;30.472;2023-04-06T00:46:21;3.90;99.90
29403;DHT22;16382;59.942;30.472;2023-04-06T00:48:48;3.90;99.90
29403;DHT22;16382;59.942;30.472;2023-04-06T00:51:17;3.90;99.90
29403;DHT22;16382;59.942;30.472;2023-04-06T00:53:45;3.90;99.90
29403;DHT22;16382;59.942;30.472;2023-04-06T00:56:13;3.90;99.90
29403;DHT22;16382;59.942;30.472;2023-04-06T00:58:49;3.90;99.90
29403;DHT22;16382;59.942;30.472;2023-04-06T01:01:17;3.90;99.90
29403;DHT22;16382;59.942;30.472;2023-04-06T01:03:45;3.80;99.90
29403;DHT22;16382;59.942;30.472;2023-04-06T01:06:18;3.80;99.90
29403;DHT22;16382;59.942;30.472;2023-04-06T01:08:55;3.80;99.90
29403;DHT22;16382;59.942;30.472;2023-04-06T01:11:25;3.90;99.90
29403;DHT22;16382;59.942;30.472;2023-04-06T01:13:52;3.90;99.90
29403;DHT22;16382;59.942;30.472;2023-04-06T01:16:26;3.90;99.90
29403;DHT22;16382;59.942;30.472;2023-04-06T01:19:28;3.90;99.90
29403;DHT22;16382;59.942;30.472;2023-04-06T01:21:58;3.90;99.90
29403;DHT22;16382;59.942;30.472;2023-04-06T01:24:30;3.90;99.90
29403;DHT22;16382;59.942;30.472;2023-04-06T01:27:12;3.90;99.90
29403;DHT22;16382;59.942;30.472;2023-04-06T01:29:57;3.90;99.90
29403;DHT22;16382;59.942;30.472;2023-04-06T01:32:41;3.80;99.90
29403;DHT22;16382;59.942;30.472;2023-04-06T01:35:12;3.80;99.90
29403;DHT22;16382;59.942;30.472;2023-04-06T01:37:46;3.80;99.90
29403;DHT22;16382;59.942;30.472;2023-04-06T01:40:24;3.80;99.90
29403;DHT22;16382;59.942;30.472;2023-04-06T01:42:52;3.80;99.90
29403;DHT22;16382;59.942;30.472;2023-04-06T01:45:28;3.90;99.90
29403;DHT22;16382;59.942;30.472;2023-04-06T01:48:01;3.90;99.90
29403;DHT22;16382;59.942;30.472;2023-04-06T01:50:29;3.90;99.90
29403;DHT22;16382;59.942;30.472;2023-04-06T01:52:57;3.90;99.90
29403;DHT22;16382;59.942;30.472;2023-04-06T01:55:28;3.90;99.90
29403;DHT22;16382;59.942;30.472;2023-04-06T01:58:22;3.80;99.90
29403;DHT22;16382;59.942;30.472;2023-04-06T02:00:49;3.80;99.90
29403;DHT22;16382;59.942;30.472;2023-04-06T02:03:17;3.80;99.90
29403;DHT22;16382;59.942;30.472;2023-04-06T02:05:46;3.80;99.90
29403;DHT22;16382;59.942;30.472;2023-04-06T02:08:21;3.80;99.90
29403;DHT22;16382;59.942;30.472;2023-04-06T02:10:50;3.80;99.90
29403;DHT22;16382;59.942;30.472;2023-04-06T02:13:29;3.80;99.90
29403;DHT22;16382;59.942;30.472;2023-04-06T02:15:57;3.70;99.90
29403;DHT22;16382;59.942;30.472;2023-04-06T02:18:28;3.70;99.90
29403;DHT22;16382;59.942;30.472;2023-04-06T02:20:55;3.70;99.90
29403;DHT22;16382;59.942;30.472;2023-04-06T02:23:23;3.70;99.90
29403;DHT22;16382;59.942;30.472;2023-04-06T02:25:52;3.70;99.90
29403;DHT22;16382;59.942;30.472;2023-04-06T02:28:20;3.60;99.90
29403;DHT22;16382;59.942;30.472;2023-04-06T02:30:47;3.60;99.90
29403;DHT22;16382;59.942;30.472;2023-04-06T02:33:16;3.60;99.90
29403;DHT22;16382;59.942;30.472;2023-04-06T02:35:46;3.60;99.90
29403;DHT22;16382;59.942;30.472;2023-04-06T02:38:14;3.60;99.90
29403;DHT22;16382;59.942;30.472;2023-04-06T02:40:41;3.60;99.90
29403;DHT22;16382;59.942;30.472;2023-04-06T02:43:21;3.60;99.90
29403;DHT22;16382;59.942;30.472;2023-04-06T02:45:53;3.60;99.90
29403;DHT22;16382;59.942;30.472;2023-04-06T02:48:23;3.60;99.90
29403;DHT22;16382;59.942;30.472;2023-04-06T02:50:52;3.60;99.90
29403;DHT22;16382;59.942;30.472;2023-04-06T02:53:20;3.50;99.90
29403;DHT22;16382;59.942;30.472;2023-04-06T02:55:48;3.50;99.90
29403;DHT22;16382;59.942;30.472;2023-04-06T02:58:15;3.50;99.90
29403;DHT22;16382;59.942;30.472;2023-04-06T03:00:49;3.50;99.90
29403;DHT22;16382;59.942;30.472;2023-04-06T03:03:17;3.50;99.90
29403;DHT22;16382;59.942;30.472;2023-04-06T03:05:45;3.50;99.90
29403;DHT22;16382;59.942;30.472;2023-04-06T03:08:15;3.50;99.90
29403;DHT22;16382;59.942;30.472;2023-04-06T03:10:44;3.40;99.90
29403;DHT22;16382;59.942;30.472;2023-04-06T03:13:13;3.40;99.90
29403;DHT22;16382;59.942;30.472;2023-04-06T03:15:48;3.40;99.90
29403;DHT22;16382;59.942;30.472;2023-04-06T03:18:21;3.40;99.90
29403;DHT22;16382;59.942;30.472;2023-04-06T03:20:53;3.40;99.90
29403;DHT22;16382;59.942;30.472;2023-04-06T03:23:25;3.50;99.90
29403;DHT22;16382;59.942;30.472;2023-04-06T03:26:00;3.50;99.90
29403;DHT22;16382;59.942;30.472;2023-04-06T03:28:29;3.50;99.90
29403;DHT22;16382;59.942;30.472;2023-04-06T03:31:04;3.60;99.90
29403;DHT22;16382;59.942;30.472;2023-04-06T03:33:54;3.50;99.90
29403;DHT22;16382;59.942;30.472;2023-04-06T03:36:26;3.50;99.90
29403;DHT22;16382;59.942;30.472;2023-04-06T03:38:56;3.50;99.90
29403;DHT22;16382;59.942;30.472;2023-04-06T03:41:24;3.50;99.90
29403;DHT22;16382;59.942;30.472;2023-04-06T03:44:18;3.50;99.90
29403;DHT22;16382;59.942;30.472;2023-04-06T03:46:47;3.50;99.90
29403;DHT22;16382;59.942;30.472;2023-04-06T03:49:15;3.50;99.90
29403;DHT22;16382;59.942;30.472;2023-04-06T03:51:47;3.50;99.90
29403;DHT22;16382;59.942;30.472;2023-04-06T03:54:14;3.50;99.90
29403;DHT22;16382;59.942;30.472;2023-04-06T03:56:42;3.50;99.90
29403;DHT22;16382;59.942;30.472;2023-04-06T03:59:11;3.50;99.90
29403;DHT22;16382;59.942;30.472;2023-04-06T04:01:39;3.50;99.90
29403;DHT22;16382;59.942;30.472;2023-04-06T04:04:08;3.50;99.90
29403;DHT22;16382;59.942;30.472;2023-04-06T04:06:35;3.50;99.90
29403;DHT22;16382;59.942;30.472;2023-04-06T04:09:03;3.50;99.90
29403;DHT22;16382;59.942;30.472;2023-04-06T04:11:30;3.50;99.90
29403;DHT22;16382;59.942;30.472;2023-04-06T04:14:02;3.40;99.90
29403;DHT22;16382;59.942;30.472;2023-04-06T04:16:32;3.40;99.90
29403;DHT22;16382;59.942;30.472;2023-04-06T04:19:00;3.40;99.90
29403;DHT22;16382;59.942;30.472;2023-04-06T04:24:27;3.30;99.90
29403;DHT22;16382;59.942;30.472;2023-04-06T04:26:55;3.30;99.90
29403;DHT22;16382;59.942;30.472;2023-04-06T04:29:23;3.30;99.90
29403;DHT22;16382;59.942;30.472;2023-04-06T04:31:52;3.30;99.90
29403;DHT22;16382;59.942;30.472;2023-04-06T04:34:21;3.30;99.90
29403;DHT22;16382;59.942;30.472;2023-04-06T04:36:52;3.30;99.90
29403;DHT22;16382;59.942;30.472;2023-04-06T04:39:30;3.30;99.90
29403;DHT22;16382;59.942;30.472;2023-04-06T04:42:06;3.40;99.90
29403;DHT22;16382;59.942;30.472;2023-04-06T04:44:41;3.40;99.90
29403;DHT22;16382;59.942;30.472;2023-04-06T04:50:45;3.40;99.90
29403;DHT22;16382;59.942;30.472;2023-04-06T04:53:16;3.30;99.90
29403;DHT22;16382;59.942;30.472;2023-04-06T04:55:48;3.40;99.90
29403;DHT22;16382;59.942;30.472;2023-04-06T04:58:17;3.50;99.90
29403;DHT22;16382;59.942;30.472;2023-04-06T05:00:53;3.50;99.90
29403;DHT22;16382;59.942;30.472;2023-04-06T05:03:23;3.50;99.90
29403;DHT22;16382;59.942;30.472;2023-04-06T05:06:04;3.50;99.90
29403;DHT22;16382;59.942;30.472;2023-04-06T05:08:37;3.50;99.90
29403;DHT22;16382;59.942;30.472;2023-04-06T05:11:06;3.50;99.90
29403;DHT22;16382;59.942;30.472;2023-04-06T05:13:38;3.50;99.90
29403;DHT22;16382;59.942;30.472;2023-04-06T05:16:12;3.50;99.90
29403;DHT22;16382;59.942;30.472;2023-04-06T05:18:42;3.50;99.90
29403;DHT22;16382;59.942;30.472;2023-04-06T05:21:11;3.50;99.90
29403;DHT22;16382;59.942;30.472;2023-04-06T05:23:52;3.50;99.90
29403;DHT22;16382;59.942;30.472;2023-04-06T05:26:22;3.60;99.90
29403;DHT22;16382;59.942;30.472;2023-04-06T05:28:53;3.50;99.90
29403;DHT22;16382;59.942;30.472;2023-04-06T05:31:22;3.60;99.90
29403;DHT22;16382;59.942;30.472;2023-04-06T05:33:50;3.60;99.90
29403;DHT22;16382;59.942;30.472;2023-04-06T05:36:29;3.70;99.90
29403;DHT22;16382;59.942;30.472;2023-04-06T05:39:06;3.70;99.90
29403;DHT22;16382;59.942;30.472;2023-04-06T05:41:39;3.70;99.90
29403;DHT22;16382;59.942;30.472;2023-04-06T05:44:09;3.70;99.90
29403;DHT22;16382;59.942;30.472;2023-04-06T05:46:38;3.70;99.90
29403;DHT22;16382;59.942;30.472;2023-04-06T05:49:10;3.80;99.90
29403;DHT22;16382;59.942;30.472;2023-04-06T05:51:39;3.80;99.90
29403;DHT22;16382;59.942;30.472;2023-04-06T05:54:08;3.80;99.90
29403;DHT22;16382;59.942;30.472;2023-04-06T05:56:39;3.70;99.90
29403;DHT22;16382;59.942;30.472;2023-04-06T05:59:10;3.70;99.90
29403;DHT22;16382;59.942;30.472;2023-04-06T06:01:38;3.60;99.90
29403;DHT22;16382;59.942;30.472;2023-04-06T06:04:11;3.60;99.90
29403;DHT22;16382;59.942;30.472;2023-04-06T06:06:40;3.60;99.90
29403;DHT22;16382;59.942;30.472;2023-04-06T06:09:14;3.60;99.90
29403;DHT22;16382;59.942;30.472;2023-04-06T06:11:51;3.60;99.90
29403;DHT22;16382;59.942;30.472;2023-04-06T06:14:23;3.60;99.90
29403;DHT22;16382;59.942;30.472;2023-04-06T06:16:51;3.60;99.90
29403;DHT22;16382;59.942;30.472;2023-04-06T06:19:19;3.60;99.90
29403;DHT22;16382;59.942;30.472;2023-04-06T06:21:47;3.60;99.90
29403;DHT22;16382;59.942;30.472;2023-04-06T06:24:17;3.70;99.90
29403;DHT22;16382;59.942;30.472;2023-04-06T06:26:44;3.70;99.90
29403;DHT22;16382;59.942;30.472;2023-04-06T06:29:27;3.80;99.90
29403;DHT22;16382;59.942;30.472;2023-04-06T06:31:56;3.80;99.90
29403;DHT22;16382;59.942;30.472;2023-04-06T06:34:24;3.70;99.90
29403;DHT22;16382;59.942;30.472;2023-04-06T06:36:54;3.70;99.90
29403;DHT22;16382;59.942;30.472;2023-04-06T06:39:23;3.70;99.90
29403;DHT22;16382;59.942;30.472;2023-04-06T06:41:51;3.70;99.90
29403;DHT22;16382;59.942;30.472;2023-04-06T06:44:23;3.70;99.90
29403;DHT22;16382;59.942;30.472;2023-04-06T06:46:51;3.60;99.90
29403;DHT22;16382;59.942;30.472;2023-04-06T06:49:19;3.60;99.90
29403;DHT22;16382;59.942;30.472;2023-04-06T06:51:46;3.70;99.90
29403;DHT22;16382;59.942;30.472;2023-04-06T06:54:14;3.70;99.90
29403;DHT22;16382;59.942;30.472;2023-04-06T06:56:43;3.90;99.90
29403;DHT22;16382;59.942;30.472;2023-04-06T06:59:11;3.90;99.90
29403;DHT22;16382;59.942;30.472;2023-04-06T07:01:38;4.00;99.90
29403;DHT22;16382;59.942;30.472;2023-04-06T07:04:06;4.00;99.90
29403;DHT22;16382;59.942;30.472;2023-04-06T07:06:35;4.00;99.90
29403;DHT22;16382;59.942;30.472;2023-04-06T07:09:06;4.10;99.90
29403;DHT22;16382;59.942;30.472;2023-04-06T07:11:33;4.20;99.90
29403;DHT22;16382;59.942;30.472;2023-04-06T07:14:03;4.30;99.90
29403;DHT22;16382;59.942;30.472;2023-04-06T07:16:30;4.40;99.90
29403;DHT22;16382;59.942;30.472;2023-04-06T07:18:58;4.50;99.90
29403;DHT22;16382;59.942;30.472;2023-04-06T07:21:26;4.60;99.90
29403;DHT22;16382;59.942;30.472;2023-04-06T07:23:55;4.70;99.90
29403;DHT22;16382;59.942;30.472;2023-04-06T07:26:23;4.80;99.90
29403;DHT22;16382;59.942;30.472;2023-04-06T07:28:51;4.80;99.90
29403;DHT22;16382;59.942;30.472;2023-04-06T07:31:22;4.80;99.90
29403;DHT22;16382;59.942;30.472;2023-04-06T07:33:50;4.90;99.90
29403;DHT22;16382;59.942;30.472;2023-04-06T07:36:18;5.00;99.90
29403;DHT22;16382;59.942;30.472;2023-04-06T07:38:45;5.00;99.90
29403;DHT22;16382;59.942;30.472;2023-04-06T07:41:17;5.10;99.90
29403;DHT22;16382;59.942;30.472;2023-04-06T07:43:45;4.90;99.90
29403;DHT22;16382;59.942;30.472;2023-04-06T07:46:13;4.90;99.90
29403;DHT22;16382;59.942;30.472;2023-04-06T07:48:42;4.90;99.90
29403;DHT22;16382;59.942;30.472;2023-04-06T07:51:10;4.90;99.90
29403;DHT22;16382;59.942;30.472;2023-04-06T07:53:41;4.90;99.90
29403;DHT22;16382;59.942;30.472;2023-04-06T07:56:08;5.00;99.90
29403;DHT22;16382;59.942;30.472;2023-04-06T07:58:36;5.10;99.90
29403;DHT22;16382;59.942;30.472;2023-04-06T08:01:04;5.20;99.90
29403;DHT22;16382;59.942;30.472;2023-04-06T08:03:34;5.20;99.90
29403;DHT22;16382;59.942;30.472;2023-04-06T08:06:03;5.10;99.90
29403;DHT22;16382;59.942;30.472;2023-04-06T08:08:32;5.00;99.90
29403;DHT22;16382;59.942;30.472;2023-04-06T08:10:59;5.00;99.90
29403;DHT22;16382;59.942;30.472;2023-04-06T08:13:28;5.10;99.90
29403;DHT22;16382;59.942;30.472;2023-04-06T08:15:56;5.10;99.90
29403;DHT22;16382;59.942;30.472;2023-04-06T08:18:24;5.20;99.90
29403;DHT22;16382;59.942;30.472;2023-04-06T08:20:51;5.20;99.90
29403;DHT22;16382;59.942;30.472;2023-04-06T08:23:20;5.20;99.90
29403;DHT22;16382;59.942;30.472;2023-04-06T08:25:48;5.30;99.90
29403;DHT22;16382;59.942;30.472;2023-04-06T08:28:16;5.20;99.90
29403;DHT22;16382;59.942;30.472;2023-04-06T08:30:43;5.30;99.90
29403;DHT22;16382;59.942;30.472;2023-04-06T08:33:11;5.40;99.90
29403;DHT22;16382;59.942;30.472;2023-04-06T08:35:41;5.50;99.90
29403;DHT22;16382;59.942;30.472;2023-04-06T08:38:09;5.50;99.90
29403;DHT22;16382;59.942;30.472;2023-04-06T08:40:38;5.50;99.90
29403;DHT22;16382;59.942;30.472;2023-04-06T08:43:09;5.60;99.90
29403;DHT22;16382;59.942;30.472;2023-04-06T08:45:41;5.60;99.90
29403;DHT22;16382;59.942;30.472;2023-04-06T08:48:11;5.60;99.90
29403;DHT22;16382;59.942;30.472;2023-04-06T08:50:39;5.50;99.90
29403;DHT22;16382;59.942;30.472;2023-04-06T08:53:07;5.40;99.90
29403;DHT22;16382;59.942;30.472;2023-04-06T08:55:37;5.40;99.90
29403;DHT22;16382;59.942;30.472;2023-04-06T08:58:06;5.40;99.90
29403;DHT22;16382;59.942;30.472;2023-04-06T09:00:37;5.50;99.90
29403;DHT22;16382;59.942;30.472;2023-04-06T09:03:07;5.60;99.90
29403;DHT22;16382;59.942;30.472;2023-04-06T09:05:35;5.60;99.90
29403;DHT22;16382;59.942;30.472;2023-04-06T09:08:03;5.60;99.90
29403;DHT22;16382;59.942;30.472;2023-04-06T09:10:32;5.60;99.90
29403;DHT22;16382;59.942;30.472;2023-04-06T09:13:05;5.60;99.90
29403;DHT22;16382;59.942;30.472;2023-04-06T09:15:33;5.60;99.90
29403;DHT22;16382;59.942;30.472;2023-04-06T09:18:03;5.60;99.90
29403;DHT22;16382;59.942;30.472;2023-04-06T09:20:31;5.70;99.90
29403;DHT22;16382;59.942;30.472;2023-04-06T09:22:59;5.80;99.90
29403;DHT22;16382;59.942;30.472;2023-04-06T09:25:27;5.90;99.90
29403;DHT22;16382;59.942;30.472;2023-04-06T09:28:00;6.00;99.90
29403;DHT22;16382;59.942;30.472;2023-04-06T09:30:31;6.00;99.90
29403;DHT22;16382;59.942;30.472;2023-04-06T09:33:00;6.00;99.90
29403;DHT22;16382;59.942;30.472;2023-04-06T09:35:30;6.00;99.90
29403;DHT22;16382;59.942;30.472;2023-04-06T09:37:58;6.20;99.90
29403;DHT22;16382;59.942;30.472;2023-04-06T09:40:26;6.30;99.90
29403;DHT22;16382;59.942;30.472;2023-04-06T09:42:57;6.40;99.90
29403;DHT22;16382;59.942;30.472;2023-04-06T09:45:26;6.50;99.90
29403;DHT22;16382;59.942;30.472;2023-04-06T09:47:56;6.60;99.90
29403;DHT22;16382;59.942;30.472;2023-04-06T09:50:26;6.60;99.90
29403;DHT22;16382;59.942;30.472;2023-04-06T09:52:55;6.60;99.90
29403;DHT22;16382;59.942;30.472;2023-04-06T09:55:29;6.60;99.90
29403;DHT22;16382;59.942;30.472;2023-04-06T09:58:04;6.70;99.90
29403;DHT22;16382;59.942;30.472;2023-04-06T10:00:40;6.70;99.90
29403;DHT22;16382;59.942;30.472;2023-04-06T10:03:21;6.90;99.90
29403;DHT22;16382;59.942;30.472;2023-04-06T10:05:58;7.00;99.90
29403;DHT22;16382;59.942;30.472;2023-04-06T10:08:30;7.60;99.90
29403;DHT22;16382;59.942;30.472;2023-04-06T10:11:00;8.30;99.90
29403;DHT22;16382;59.942;30.472;2023-04-06T10:13:27;9.00;99.90
29403;DHT22;16382;59.942;30.472;2023-04-06T10:15:55;10.00;99.90
29403;DHT22;16382;59.942;30.472;2023-04-06T10:18:24;11.10;99.90
29403;DHT22;16382;59.942;30.472;2023-04-06T10:20:56;11.40;99.90
29403;DHT22;16382;59.942;30.472;2023-04-06T10:23:32;11.50;99.90
29403;DHT22;16382;59.942;30.472;2023-04-06T10:26:05;12.00;99.90
29403;DHT22;16382;59.942;30.472;2023-04-06T10:28:41;13.50;99.90
29403;DHT22;16382;59.942;30.472;2023-04-06T10:31:10;14.70;99.90
29403;DHT22;16382;59.942;30.472;2023-04-06T10:33:39;15.60;97.10
29403;DHT22;16382;59.942;30.472;2023-04-06T10:36:11;16.20;95.00
29403;DHT22;16382;59.942;30.472;2023-04-06T10:38:39;17.00;91.50
29403;DHT22;16382;59.942;30.472;2023-04-06T10:41:09;17.70;89.60
29403;DHT22;16382;59.942;30.472;2023-04-06T10:43:38;18.40;83.40
29403;DHT22;16382;59.942;30.472;2023-04-06T10:46:08;18.90;78.20
29403;DHT22;16382;59.942;30.472;2023-04-06T10:48:38;19.50;75.10
29403;DHT22;16382;59.942;30.472;2023-04-06T10:51:09;20.00;71.30
29403;DHT22;16382;59.942;30.472;2023-04-06T10:53:38;20.00;70.80
29403;DHT22;16382;59.942;30.472;2023-04-06T10:56:10;20.00;69.30
29403;DHT22;16382;59.942;30.472;2023-04-06T10:58:44;19.80;67.30
29403;DHT22;16382;59.942;30.472;2023-04-06T11:01:14;19.50;68.20
29403;DHT22;16382;59.942;30.472;2023-04-06T11:03:44;18.60;68.50
29403;DHT22;16382;59.942;30.472;2023-04-06T11:06:18;17.80;70.80
29403;DHT22;16382;59.942;30.472;2023-04-06T11:08:46;17.20;73.50
29403;DHT22;16382;59.942;30.472;2023-04-06T11:11:15;17.10;75.00
29403;DHT22;16382;59.942;30.472;2023-04-06T11:13:45;17.30;74.90
29403;DHT22;16382;59.942;30.472;2023-04-06T11:16:16;17.90;75.90
29403;DHT22;16382;59.942;30.472;2023-04-06T11:18:52;18.70;72.60
29403;DHT22;16382;59.942;30.472;2023-04-06T11:21:31;19.40;69.50
29403;DHT22;16382;59.942;30.472;2023-04-06T11:24:08;19.60;67.20
29403;DHT22;16382;59.942;30.472;2023-04-06T11:26:38;20.10;68.70
29403;DHT22;16382;59.942;30.472;2023-04-06T11:29:06;21.00;65.40
29403;DHT22;16382;59.942;30.472;2023-04-06T11:31:39;21.90;62.20
29403;DHT22;16382;59.942;30.472;2023-04-06T11:34:13;22.40;60.60
29403;DHT22;16382;59.942;30.472;2023-04-06T11:36:43;22.80;57.90
29403;DHT22;16382;59.942;30.472;2023-04-06T11:39:13;23.10;57.90
29403;DHT22;16382;59.942;30.472;2023-04-06T11:41:41;23.40;56.90
29403;DHT22;16382;59.942;30.472;2023-04-06T11:44:09;23.60;55.60
29403;DHT22;16382;59.942;30.472;2023-04-06T11:46:40;23.70;55.90
29403;DHT22;16382;59.942;30.472;2023-04-06T11:49:08;24.10;55.30
29403;DHT22;16382;59.942;30.472;2023-04-06T11:51:39;24.50;54.20
29403;DHT22;16382;59.942;30.472;2023-04-06T11:54:07;24.70;53.60
29403;DHT22;16382;59.942;30.472;2023-04-06T11:56:34;24.80;53.00
29403;DHT22;16382;59.942;30.472;2023-04-06T11:59:03;25.00;52.40
29403;DHT22;16382;59.942;30.472;2023-04-06T12:01:30;25.10;51.10
29403;DHT22;16382;59.942;30.472;2023-04-06T12:03:58;24.90;51.30
29403;DHT22;16382;59.942;30.472;2023-04-06T12:06:26;25.00;51.00
29403;DHT22;16382;59.942;30.472;2023-04-06T12:08:55;25.30;50.60
29403;DHT22;16382;59.942;30.472;2023-04-06T12:11:22;25.30;50.50
29403;DHT22;16382;59.942;30.472;2023-04-06T12:13:50;25.10;49.60
29403;DHT22;16382;59.942;30.472;2023-04-06T12:16:18;24.40;50.20
29403;DHT22;16382;59.942;30.472;2023-04-06T12:18:46;23.80;51.80
29403;DHT22;16382;59.942;30.472;2023-04-06T12:21:14;23.50;52.30
29403;DHT22;16382;59.942;30.472;2023-04-06T12:23:41;23.50;51.40
29403;DHT22;16382;59.942;30.472;2023-04-06T12:26:10;23.30;51.20
29403;DHT22;16382;59.942;30.472;2023-04-06T12:28:38;23.40;51.40
29403;DHT22;16382;59.942;30.472;2023-04-06T12:31:06;23.50;51.60
29403;DHT22;16382;59.942;30.472;2023-04-06T12:33:33;23.60;50.60
29403;DHT22;16382;59.942;30.472;2023-04-06T12:36:01;24.00;50.30
29403;DHT22;16382;59.942;30.472;2023-04-06T12:38:28;24.20;49.80
29403;DHT22;16382;59.942;30.472;2023-04-06T12:40:56;24.50;49.80
29403;DHT22;16382;59.942;30.472;2023-04-06T12:43:25;24.10;48.90
29403;DHT22;16382;59.942;30.472;2023-04-06T12:45:53;23.60;49.30
29403;DHT22;16382;59.942;30.472;2023-04-06T12:48:20;23.40;49.60
29403;DHT22;16382;59.942;30.472;2023-04-06T12:50:54;23.70;49.60
29403;DHT22;16382;59.942;30.472;2023-04-06T12:53:22;24.40;49.60
29403;DHT22;16382;59.942;30.472;2023-04-06T12:55:50;25.20;48.20
29403;DHT22;16382;59.942;30.472;2023-04-06T12:58:18;25.70;46.50
29403;DHT22;16382;59.942;30.472;2023-04-06T13:00:47;25.90;45.90
29403;DHT22;16382;59.942;30.472;2023-04-06T13:03:17;26.00;46.30
29403;DHT22;16382;59.942;30.472;2023-04-06T13:05:45;26.20;45.50
29403;DHT22;16382;59.942;30.472;2023-04-06T13:08:13;26.50;44.60
29403;DHT22;16382;59.942;30.472;2023-04-06T13:10:43;26.50;44.00
29403;DHT22;16382;59.942;30.472;2023-04-06T13:13:11;26.60;43.70
29403;DHT22;16382;59.942;30.472;2023-04-06T13:15:38;26.60;43.40
29403;DHT22;16382;59.942;30.472;2023-04-06T13:18:07;26.50;44.00
29403;DHT22;16382;59.942;30.472;2023-04-06T13:20:35;26.80;42.60
29403;DHT22;16382;59.942;30.472;2023-04-06T13:23:02;26.70;43.70
29403;DHT22;16382;59.942;30.472;2023-04-06T13:25:30;26.80;43.20
29403;DHT22;16382;59.942;30.472;2023-04-06T13:27:58;26.70;42.70
29403;DHT22;16382;59.942;30.472;2023-04-06T13:30:26;26.60;42.40
29403;DHT22;16382;59.942;30.472;2023-04-06T13:32:53;26.60;43.10
29403;DHT22;16382;59.942;30.472;2023-04-06T13:35:22;26.60;42.20
29403;DHT22;16382;59.942;30.472;2023-04-06T13:37:50;26.60;44.10
29403;DHT22;16382;59.942;30.472;2023-04-06T13:40:18;26.80;41.50
29403;DHT22;16382;59.942;30.472;2023-04-06T13:42:46;26.50;41.90
29403;DHT22;16382;59.942;30.472;2023-04-06T13:45:14;26.50;41.80
29403;DHT22;16382;59.942;30.472;2023-04-06T13:47:42;26.10;41.30
29403;DHT22;16382;59.942;30.472;2023-04-06T13:50:10;25.90;41.80
29403;DHT22;16382;59.942;30.472;2023-04-06T13:52:39;25.50;42.00
29403;DHT22;16382;59.942;30.472;2023-04-06T13:55:08;25.20;42.20
29403;DHT22;16382;59.942;30.472;2023-04-06T13:57:35;24.80;42.70
29403;DHT22;16382;59.942;30.472;2023-04-06T14:00:04;24.30;43.00
29403;DHT22;16382;59.942;30.472;2023-04-06T14:02:33;24.20;43.60
29403;DHT22;16382;59.942;30.472;2023-04-06T14:05:01;24.50;42.50
29403;DHT22;16382;59.942;30.472;2023-04-06T14:07:31;24.90;42.30
29403;DHT22;16382;59.942;30.472;2023-04-06T14:10:04;25.10;41.70
29403;DHT22;16382;59.942;30.472;2023-04-06T14:12:43;25.20;41.40
29403;DHT22;16382;59.942;30.472;2023-04-06T14:15:11;25.20;41.10
29403;DHT22;16382;59.942;30.472;2023-04-06T14:17:39;24.90;41.40
29403;DHT22;16382;59.942;30.472;2023-04-06T14:20:07;24.80;41.20
29403;DHT22;16382;59.942;30.472;2023-04-06T14:22:40;24.40;41.60
29403;DHT22;16382;59.942;30.472;2023-04-06T14:25:12;23.90;42.30
29403;DHT22;16382;59.942;30.472;2023-04-06T14:27:39;23.80;42.70
29403;DHT22;16382;59.942;30.472;2023-04-06T14:30:08;23.60;42.90
29403;DHT22;16382;59.942;30.472;2023-04-06T14:32:36;23.50;42.50
29403;DHT22;16382;59.942;30.472;2023-04-06T14:35:04;23.20;42.90
29403;DHT22;16382;59.942;30.472;2023-04-06T14:37:34;22.90;42.80
29403;DHT22;16382;59.942;30.472;2023-04-06T14:40:04;22.70;43.00
29403;DHT22;16382;59.942;30.472;2023-04-06T14:42:35;22.20;43.30
29403;DHT22;16382;59.942;30.472;2023-04-06T14:45:05;21.90;44.00
29403;DHT22;16382;59.942;30.472;2023-04-06T14:47:35;21.70;43.90
29403;DHT22;16382;59.942;30.472;2023-04-06T14:50:03;21.40;44.30
29403;DHT22;16382;59.942;30.472;2023-04-06T14:52:31;20.70;45.30
29403;DHT22;16382;59.942;30.472;2023-04-06T14:54:59;19.90;46.10
29403;DHT22;16382;59.942;30.472;2023-04-06T14:57:27;18.80;47.50
29403;DHT22;16382;59.942;30.472;2023-04-06T14:59:56;17.40;50.00
29403;DHT22;16382;59.942;30.472;2023-04-06T15:02:23;16.40;51.50
29403;DHT22;16382;59.942;30.472;2023-04-06T15:04:51;15.70;53.10
29403;DHT22;16382;59.942;30.472;2023-04-06T15:07:18;14.90;53.90
29403;DHT22;16382;59.942;30.472;2023-04-06T15:09:46;14.10;55.10
29403;DHT22;16382;59.942;30.472;2023-04-06T15:12:14;13.50;56.30
29403;DHT22;16382;59.942;30.472;2023-04-06T15:14:41;12.90;57.60
29403;DHT22;16382;59.942;30.472;2023-04-06T15:17:10;12.50;58.40
29403;DHT22;16382;59.942;30.472;2023-04-06T15:19:38;12.20;59.30
29403;DHT22;16382;59.942;30.472;2023-04-06T15:22:07;11.90;59.50
29403;DHT22;16382;59.942;30.472;2023-04-06T15:24:37;11.80;60.90
29403;DHT22;16382;59.942;30.472;2023-04-06T15:27:04;11.70;61.10
29403;DHT22;16382;59.942;30.472;2023-04-06T15:29:32;11.60;61.40
29403;DHT22;16382;59.942;30.472;2023-04-06T15:31:59;11.50;61.50
29403;DHT22;16382;59.942;30.472;2023-04-06T15:34:30;11.30;61.80
29403;DHT22;16382;59.942;30.472;2023-04-06T15:37:01;11.20;62.00
29403;DHT22;16382;59.942;30.472;2023-04-06T15:39:29;11.20;63.00
29403;DHT22;16382;59.942;30.472;2023-04-06T15:41:58;11.10;62.80
29403;DHT22;16382;59.942;30.472;2023-04-06T15:44:34;11.00;62.60
29403;DHT22;16382;59.942;30.472;2023-04-06T15:47:04;10.90;62.70
29403;DHT22;16382;59.942;30.472;2023-04-06T15:49:33;10.70;63.00